createdAt,value
2023-07-18T00:00:26.254Z,16.75
2023-07-18T00:05:44.662Z,16.62
2023-07-18T00:11:04.343Z,16.69
2023-07-18T00:16:24.095Z,16.81
2023-07-18T00:21:43.627Z,16.87
2023-07-18T00:27:03.158Z,16.81
2023-07-18T00:32:21.373Z,16.81
2023-07-18T00:37:41.172Z,16.81
2023-07-18T00:43:00.926Z,16.75
2023-07-18T00:53:18.554Z,16.87
2023-07-18T00:58:37.209Z,16.94
2023-07-18T01:03:56.803Z,16.81
2023-07-18T01:09:16.335Z,16.62
2023-07-18T01:19:42.734Z,16.5
2023-07-18T01:25:01.271Z,16.5
2023-07-18T01:30:20.858Z,16.37
2023-07-18T01:35:40.658Z,16.44
2023-07-18T01:40:58.968Z,16.56
2023-07-18T01:46:18.686Z,16.69
2023-07-18T01:51:39.333Z,16.75
2023-07-18T01:56:58.853Z,16.75
2023-07-18T02:02:18.582Z,16.75
2023-07-18T02:07:38.312Z,16.81
2023-07-18T02:12:57.070Z,16.69
2023-07-18T02:18:16.537Z,16.5
2023-07-18T02:23:36.301Z,16.37
2023-07-18T02:39:09.657Z,16.06
2023-07-18T02:44:29.202Z,15.81
2023-07-18T02:49:48.952Z,15.69
2023-07-18T02:55:08.647Z,15.56
2023-07-18T03:00:28.278Z,15.44
2023-07-18T03:05:46.999Z,15.25
2023-07-18T03:11:05.610Z,15.19
2023-07-18T03:16:24.314Z,15.19
2023-07-18T03:21:43.046Z,14.87
2023-07-18T03:27:01.776Z,14.75
2023-07-18T03:32:21.452Z,14.87
2023-07-18T03:37:41.232Z,14.69
2023-07-18T03:42:59.765Z,14.44
2023-07-18T03:53:17.277Z,14.25
2023-07-18T03:58:35.683Z,14.19
2023-07-18T04:03:53.925Z,14.13
2023-07-18T04:09:14.964Z,14.31
2023-07-18T04:14:33.380Z,14.25
2023-07-18T04:19:51.558Z,14.25
2023-07-18T04:25:09.930Z,14.19
2023-07-18T04:30:28.161Z,14.38
2023-07-18T04:35:46.864Z,14.44
2023-07-18T04:41:05.740Z,14.44
2023-07-18T04:46:24.445Z,14.5
2023-07-18T04:51:42.899Z,14.63
2023-07-18T04:57:02.980Z,14.69
2023-07-18T05:02:20.355Z,14.75
2023-07-18T05:07:38.694Z,15
2023-07-18T05:12:57.389Z,15.38
2023-07-18T05:18:16.153Z,15.44
2023-07-18T05:23:35.042Z,15.63
2023-07-18T05:28:53.877Z,15.88
2023-07-18T05:34:12.623Z,16
2023-07-18T05:39:31.276Z,16.31
2023-07-18T05:44:50.035Z,16.5
2023-07-18T05:50:08.769Z,16.69
2023-07-18T05:55:27.521Z,16.81
2023-07-18T06:00:46.013Z,16.94
2023-07-18T06:06:04.731Z,17.12
2023-07-18T06:11:23.453Z,17.31
2023-07-18T06:16:42.114Z,17.56
2023-07-18T06:22:00.868Z,17.87
2023-07-18T06:27:19.542Z,18.12
2023-07-18T06:32:38.337Z,18.37
2023-07-18T06:37:56.825Z,18.56
2023-07-18T06:43:15.531Z,18.94
2023-07-18T06:48:33.834Z,19
2023-07-18T06:53:55.523Z,19.37
2023-07-18T06:59:14.203Z,19.62
2023-07-18T07:04:32.703Z,19.94
2023-07-18T07:09:51.056Z,20.19
2023-07-18T07:15:10.058Z,20.44
2023-07-18T07:20:30.004Z,20.56
2023-07-18T07:25:49.375Z,20.94
2023-07-18T07:31:08.069Z,21.12
2023-07-18T07:36:26.494Z,21.31
2023-07-18T07:41:44.861Z,21.75
2023-07-18T07:47:03.449Z,22
2023-07-18T07:52:21.636Z,22.13
2023-07-18T07:57:40.365Z,22.56
2023-07-18T08:02:59.225Z,22.19
2023-07-18T08:08:17.604Z,22.44
2023-07-18T08:13:36.298Z,22.94
2023-07-18T08:18:55.102Z,23.38
2023-07-18T08:24:14.944Z,23.75
2023-07-18T08:29:33.783Z,23.69
2023-07-18T08:34:52.282Z,23.62
2023-07-18T08:40:11.139Z,24.25
2023-07-18T08:45:29.876Z,24.31
2023-07-18T08:50:48.749Z,24.75
2023-07-18T08:56:08.373Z,24.75
2023-07-18T09:01:27.360Z,25.44
2023-07-18T09:06:48.628Z,24.81
2023-07-18T09:12:05.786Z,25.06
2023-07-18T09:17:23.921Z,25.62
2023-07-18T09:22:42.278Z,25.88
2023-07-18T09:28:01.151Z,26.12
2023-07-18T09:33:19.594Z,26.56
2023-07-18T09:38:37.937Z,26.75
2023-07-18T09:44:13.697Z,26.81
2023-07-18T09:49:15.180Z,27.06
2023-07-18T09:54:33.046Z,26.81
2023-07-18T09:59:51.890Z,27.19
2023-07-18T10:05:10.585Z,26.37
2023-07-18T10:10:28.943Z,26.94
2023-07-18T10:15:47.225Z,26.25
2023-07-18T10:21:05.364Z,25.44
2023-07-18T10:26:23.684Z,26
2023-07-18T10:31:41.856Z,25.62
2023-07-18T10:37:00.674Z,25.12
2023-07-18T10:42:18.936Z,26.06
2023-07-18T10:47:37.856Z,26.69
2023-07-18T10:52:56.184Z,26.81
2023-07-18T10:58:14.448Z,26.81
2023-07-18T11:08:37.801Z,27.31
2023-07-18T11:19:03.170Z,28.62
2023-07-18T11:24:21.430Z,27.75
2023-07-18T11:29:39.872Z,27.81
2023-07-18T11:34:58.125Z,28.44
2023-07-18T11:40:16.959Z,27.75
2023-07-18T11:45:34.536Z,27.19
2023-07-18T11:50:52.886Z,27.06
2023-07-18T11:56:11.466Z,27.87
2023-07-18T12:01:30.755Z,28.87
2023-07-18T12:06:49.210Z,28.44
2023-07-18T12:12:08.279Z,27.62
2023-07-18T12:17:26.551Z,27.56
2023-07-18T12:22:45.715Z,29.37
2023-07-18T12:28:04.536Z,30.19
2023-07-18T12:33:22.220Z,29.69
2023-07-18T12:38:39.696Z,28.62
2023-07-18T12:44:00.780Z,29.81
2023-07-18T12:54:34.694Z,30.06
2023-07-18T12:59:52.920Z,30.56
2023-07-18T13:05:11.474Z,30.19
2023-07-18T13:10:32.492Z,30.44
2023-07-18T13:15:48.107Z,30.19
2023-07-18T13:21:06.804Z,32.13
2023-07-18T13:26:25.124Z,31.75
2023-07-18T13:36:50.338Z,30.88
2023-07-18T13:42:08.434Z,30.81
2023-07-18T13:47:26.849Z,30.88
2023-07-18T13:52:45.303Z,31.62
2023-07-18T13:58:03.599Z,32.13
2023-07-18T14:28:57.361Z,31.31
2023-07-18T14:49:36.690Z,30.88
2023-07-18T15:00:02.292Z,31.25
2023-07-18T15:05:20.255Z,31.81
2023-07-18T15:10:38.297Z,31.5
2023-07-18T15:15:56.730Z,31.12
2023-07-18T15:26:22.298Z,31.44
2023-07-18T15:31:40.335Z,30.88
2023-07-18T15:42:05.431Z,30.81
2023-07-18T15:47:23.880Z,30.75
2023-07-18T15:52:42.169Z,30.44
2023-07-18T15:58:00.547Z,30.5
2023-07-18T16:03:18.909Z,29.87
2023-07-18T16:08:37.248Z,30.31
2023-07-18T16:13:58.673Z,30.25
2023-07-18T16:19:16.967Z,30
2023-07-18T16:29:41.989Z,29.87
2023-07-18T16:35:00.348Z,30
2023-07-18T16:40:18.712Z,29.69
2023-07-18T16:45:37.003Z,29.31
2023-07-18T16:50:55.136Z,29.06
2023-07-18T16:56:13.378Z,29.19
2023-07-18T17:01:31.733Z,29.5
2023-07-18T17:06:49.921Z,29.37
2023-07-18T17:12:08.199Z,29.12
2023-07-18T17:17:29.584Z,29.06
2023-07-18T17:22:51.387Z,28.81
2023-07-18T17:28:13.196Z,28.56
2023-07-18T17:33:35.138Z,28.19
2023-07-18T17:38:55.627Z,28.12
2023-07-18T17:49:23.337Z,27.81
2023-07-18T17:54:42.943Z,27.75
2023-07-18T18:00:01.148Z,27.69
2023-07-18T18:05:19.698Z,27.37
2023-07-18T18:10:39.126Z,26.81
2023-07-18T18:16:07.785Z,26.5
2023-07-18T18:21:18.977Z,26.19
2023-07-18T18:26:36.589Z,26.06
2023-07-18T18:31:54.677Z,25.88
2023-07-18T18:37:14.488Z,25.81
2023-07-18T18:42:34.106Z,25.75
2023-07-18T18:47:53.824Z,25.81
2023-07-18T18:53:12.092Z,25.75
2023-07-18T18:58:31.817Z,25.81
2023-07-18T19:03:50.590Z,25.94
2023-07-18T19:09:09.469Z,26
2023-07-18T19:14:27.714Z,25.81
2023-07-18T19:19:47.360Z,25.56
2023-07-18T19:25:06.982Z,25.31
2023-07-18T19:30:25.228Z,24.94
2023-07-18T19:35:43.431Z,24.75
2023-07-18T19:41:02.109Z,24.56
2023-07-18T19:46:21.696Z,24.31
2023-07-18T19:51:40.062Z,24.12
2023-07-18T19:57:00.085Z,23.81
2023-07-18T20:02:18.872Z,23.75
2023-07-18T20:07:38.449Z,24.31
2023-07-18T20:12:57.210Z,24.12
2023-07-18T20:18:15.447Z,24.31
2023-07-18T20:23:35.236Z,24.75
2023-07-18T20:28:54.104Z,24.81
2023-07-18T20:34:12.383Z,24.31
2023-07-18T20:39:30.955Z,24.12
2023-07-18T20:44:49.673Z,24.06
2023-07-18T20:50:08.584Z,23.94
2023-07-18T20:55:27.252Z,23.56
2023-07-18T21:00:45.994Z,23.38
2023-07-18T21:06:05.511Z,23.19
2023-07-18T21:11:24.247Z,23
2023-07-18T21:16:43.032Z,22.75
2023-07-18T21:22:02.622Z,22.5
2023-07-18T21:27:23.244Z,22.37
2023-07-18T21:32:41.892Z,22.19
2023-07-18T21:38:00.172Z,22.13
2023-07-18T21:48:25.612Z,22
2023-07-18T21:53:44.235Z,21.69
2023-07-18T21:59:02.891Z,21.62
2023-07-18T22:04:24.337Z,21.56
2023-07-18T22:09:44.007Z,21.5
2023-07-18T22:15:03.951Z,21.44
2023-07-18T22:20:22.224Z,21.56
2023-07-18T22:25:41.853Z,21.25
2023-07-18T22:31:02.694Z,21
2023-07-18T22:41:28.305Z,20.56
2023-07-18T22:46:46.927Z,20.75
2023-07-18T22:52:05.539Z,20.62
2023-07-18T22:57:25.103Z,20.44
2023-07-18T23:02:43.522Z,20.31
2023-07-18T23:08:02.125Z,20.69
2023-07-18T23:13:20.951Z,20.88
2023-07-18T23:18:39.761Z,21.12
2023-07-18T23:23:58.460Z,20.62
2023-07-18T23:29:16.614Z,20.37
2023-07-18T23:34:35.306Z,20.06
2023-07-18T23:39:53.901Z,20.06
2023-07-18T23:45:12.658Z,20.12
2023-07-18T23:55:42.970Z,20.25
